createdAt,value
2018-05-17T00:01:04.142Z,9.27
2018-05-17T00:03:42.278Z,9.80
2018-05-17T00:06:10.599Z,9.37
2018-05-17T00:08:41.745Z,9.40
2018-05-17T00:11:12.780Z,7.73
2018-05-17T00:13:43.915Z,8.83
2018-05-17T00:16:14.955Z,9.17
2018-05-17T00:18:45.964Z,9.57
2018-05-17T00:21:15.369Z,8.80
2018-05-17T00:23:48.143Z,10.70
2018-05-17T00:26:22.131Z,9.43
2018-05-17T00:29:02.786Z,10.43
2018-05-17T00:31:39.604Z,9.07
2018-05-17T00:34:11.664Z,8.27
2018-05-17T00:36:39.941Z,8.20
2018-05-17T00:39:13.481Z,9.50
2018-05-17T00:41:46.315Z,10.33
2018-05-17T00:44:18.376Z,10.70
2018-05-17T00:46:53.735Z,10.50
2018-05-17T00:49:27.873Z,10.33
2018-05-17T00:52:06.671Z,10.77
2018-05-17T00:54:42.547Z,9.23
2018-05-17T00:57:21.428Z,8.87
2018-05-17T00:59:53.529Z,9.67
2018-05-17T01:02:28.004Z,9.57
2018-05-17T01:05:02.198Z,10.20
2018-05-17T01:07:33.182Z,9.50
2018-05-17T01:10:01.470Z,9.17
2018-05-17T01:12:29.772Z,8.27
2018-05-17T01:15:05.192Z,9.37
2018-05-17T01:17:41.994Z,8.33
2018-05-17T01:20:13.015Z,8.77
2018-05-17T01:22:45.914Z,8.80
2018-05-17T01:25:18.571Z,8.47
2018-05-17T01:27:56.343Z,8.90
2018-05-17T01:30:28.321Z,8.10
2018-05-17T01:32:58.591Z,8.87
2018-05-17T01:35:39.799Z,8.53
2018-05-17T01:38:26.014Z,9.53
2018-05-17T01:41:15.791Z,9.40
2018-05-17T01:43:45.170Z,11.87
2018-05-17T01:46:15.456Z,10.83
2018-05-17T01:48:47.523Z,10.67
2018-05-17T01:51:17.515Z,11.67
2018-05-17T01:53:49.402Z,12.10
2018-05-17T01:56:18.662Z,12.90
2018-05-17T01:58:57.699Z,12.10
2018-05-17T02:01:30.803Z,13.30
2018-05-17T02:03:59.117Z,12.27
2018-05-17T02:06:40.514Z,14.43
2018-05-17T02:09:19.809Z,14.10
2018-05-17T02:11:51.552Z,13.73
2018-05-17T02:14:19.888Z,12.43
2018-05-17T02:16:49.338Z,14.53
2018-05-17T02:19:27.703Z,13.10
2018-05-17T02:21:56.035Z,12.93
2018-05-17T02:24:24.289Z,13.50
2018-05-17T02:26:56.439Z,12.40
2018-05-17T02:29:24.786Z,13.20
2018-05-17T02:31:58.842Z,11.87
2018-05-17T02:34:28.219Z,11.63
2018-05-17T02:36:56.798Z,12.10
2018-05-17T02:39:25.310Z,12.43
2018-05-17T02:41:58.551Z,13.23
2018-05-17T02:44:34.656Z,14.40
2018-05-17T02:47:08.099Z,14.97
2018-05-17T02:49:45.846Z,15.73
2018-05-17T02:52:20.638Z,16.40
2018-05-17T02:54:56.509Z,17.33
2018-05-17T02:57:36.293Z,17.40
2018-05-17T03:00:08.455Z,16.67
2018-05-17T03:02:41.320Z,15.13
2018-05-17T03:05:13.466Z,17.13
2018-05-17T03:07:44.535Z,17.03
2018-05-17T03:10:19.603Z,16.27
2018-05-17T03:12:49.958Z,16.40
2018-05-17T03:15:20.954Z,15.13
2018-05-17T03:17:50.305Z,16.53
2018-05-17T03:20:24.414Z,15.73
2018-05-17T03:23:01.544Z,14.87
2018-05-17T03:25:31.853Z,15.17
2018-05-17T03:28:07.019Z,15.50
2018-05-17T03:30:43.779Z,15.27
2018-05-17T03:33:16.902Z,14.23
2018-05-17T03:35:48.665Z,13.73
2018-05-17T03:38:16.935Z,13.97
2018-05-17T03:40:45.248Z,13.27
2018-05-17T03:43:17.059Z,13.43
2018-05-17T03:45:46.395Z,12.63
2018-05-17T03:48:15.459Z,14.03
2018-05-17T03:50:44.765Z,13.57
2018-05-17T03:53:23.171Z,13.73
2018-05-17T03:55:52.558Z,13.27
2018-05-17T03:58:24.675Z,14.33
2018-05-17T04:04:20.282Z,15.23
2018-05-17T04:06:54.566Z,15.73
2018-05-17T04:09:27.717Z,15.50
2018-05-17T04:11:58.732Z,15.10
2018-05-17T04:14:35.020Z,14.83
2018-05-17T04:17:03.527Z,16.73
2018-05-17T04:19:35.130Z,15.27
2018-05-17T04:22:04.451Z,15.83
2018-05-17T04:24:35.629Z,14.50
2018-05-17T04:27:16.758Z,15.23
2018-05-17T04:29:45.083Z,15.47
2018-05-17T04:32:37.619Z,15.67
2018-05-17T04:35:11.202Z,14.43
2018-05-17T04:37:43.279Z,16.97
2018-05-17T04:40:18.047Z,14.50
2018-05-17T04:42:51.587Z,13.50
2018-05-17T04:45:25.003Z,13.80
2018-05-17T04:47:54.347Z,12.93
2018-05-17T04:50:23.399Z,14.10
2018-05-17T04:52:56.681Z,14.13
2018-05-17T04:55:28.008Z,13.27
2018-05-17T04:57:57.607Z,13.27
2018-05-17T05:00:27.915Z,12.50
2018-05-17T05:02:56.297Z,13.03
2018-05-17T05:05:30.553Z,13.47
2018-05-17T05:08:05.362Z,11.67
2018-05-17T05:10:39.312Z,12.80
2018-05-17T05:13:13.059Z,12.07
2018-05-17T05:15:52.186Z,12.20
2018-05-17T05:18:39.018Z,12.83
2018-05-17T05:21:11.632Z,12.37
2018-05-17T05:23:40.938Z,11.13
2018-05-17T05:26:11.335Z,11.03
2018-05-17T05:28:58.386Z,9.40
2018-05-17T05:31:34.429Z,10.50
2018-05-17T05:34:03.762Z,11.13
2018-05-17T05:36:38.893Z,11.67
2018-05-17T05:39:13.071Z,10.47
2018-05-17T05:41:44.079Z,9.03
2018-05-17T05:44:14.442Z,9.47
2018-05-17T05:46:49.217Z,10.33
2018-05-17T05:49:18.548Z,9.90
2018-05-17T05:52:01.696Z,9.90
2018-05-17T05:54:38.283Z,10.30
2018-05-17T05:57:15.010Z,9.80
2018-05-17T05:59:45.334Z,8.30
2018-05-17T06:02:27.388Z,8.50
2018-05-17T06:04:58.410Z,9.03
2018-05-17T06:07:28.500Z,8.93
2018-05-17T06:09:56.752Z,9.00
2018-05-17T06:12:25.063Z,9.00
2018-05-17T06:14:55.367Z,8.10
2018-05-17T06:17:23.656Z,9.07
2018-05-17T06:19:58.254Z,8.03
2018-05-17T06:22:26.539Z,8.27
2018-05-17T06:24:54.812Z,7.17
2018-05-17T06:27:23.115Z,6.40
2018-05-17T06:29:51.368Z,5.77
2018-05-17T06:32:21.603Z,5.57
2018-05-17T06:34:50.956Z,5.67
2018-05-17T06:37:21.233Z,5.73
2018-05-17T06:40:12.955Z,5.30
2018-05-17T06:42:45.737Z,4.93
2018-05-17T06:45:21.181Z,5.40
2018-05-17T06:47:50.483Z,4.73
2018-05-17T06:50:22.053Z,5.27
2018-05-17T06:52:51.467Z,5.70
2018-05-17T06:55:20.713Z,4.67
2018-05-17T06:57:55.248Z,5.30
2018-05-17T07:00:24.808Z,5.80
2018-05-17T07:03:01.937Z,5.00
2018-05-17T07:05:48.355Z,4.77
2018-05-17T07:08:26.542Z,5.63
2018-05-17T07:11:09.015Z,4.93
2018-05-17T07:13:38.315Z,5.57
2018-05-17T07:16:08.378Z,6.07
2018-05-17T07:18:42.039Z,6.83
2018-05-17T07:21:19.355Z,5.40
2018-05-17T07:23:51.376Z,6.07
2018-05-17T07:26:22.362Z,6.00
2018-05-17T07:28:59.359Z,5.47
2018-05-17T07:31:35.888Z,5.20
2018-05-17T07:34:04.247Z,5.80
2018-05-17T07:36:40.338Z,6.17
2018-05-17T07:39:09.684Z,5.47
2018-05-17T07:44:42.696Z,5.20
2018-05-17T07:47:21.216Z,6.07
2018-05-17T07:49:53.280Z,4.93
2018-05-17T07:52:25.084Z,5.47
2018-05-17T07:54:53.403Z,5.17
2018-05-17T07:57:26.616Z,4.20
2018-05-17T07:59:55.792Z,3.43
2018-05-17T08:02:34.896Z,4.10
2018-05-17T08:05:04.767Z,3.77
2018-05-17T08:07:58.818Z,3.87
2018-05-17T08:10:27.065Z,3.93
2018-05-17T08:12:57.308Z,3.87
2018-05-17T08:15:31.056Z,3.90
2018-05-17T08:18:07.155Z,4.33
2018-05-17T08:20:40.187Z,4.50
2018-05-17T08:23:15.655Z,4.10
2018-05-17T08:26:01.933Z,3.70
2018-05-17T08:28:30.978Z,3.90
2018-05-17T08:31:29.115Z,3.70
2018-05-17T08:33:57.393Z,4.00
2018-05-17T08:36:39.042Z,3.90
2018-05-17T08:39:11.909Z,3.93
2018-05-17T08:41:54.998Z,3.97
2018-05-17T08:44:23.713Z,3.70
2018-05-17T08:46:52.051Z,3.43
2018-05-17T08:49:27.128Z,4.17
2018-05-17T08:51:57.622Z,4.03
2018-05-17T08:54:32.957Z,3.63
2018-05-17T08:57:11.517Z,3.50
2018-05-17T08:59:44.915Z,3.63
2018-05-17T09:02:18.839Z,4.23
2018-05-17T09:04:47.134Z,4.03
2018-05-17T09:07:15.403Z,3.70
2018-05-17T09:09:47.152Z,3.63
2018-05-17T09:12:29.511Z,3.50
2018-05-17T09:14:57.896Z,3.03
2018-05-17T09:17:33.199Z,2.83
2018-05-17T09:20:16.697Z,3.20
2018-05-17T09:22:44.995Z,2.80
2018-05-17T09:25:19.287Z,2.93
2018-05-17T09:28:01.652Z,3.37
2018-05-17T09:30:38.770Z,3.27
2018-05-17T09:33:12.123Z,3.03
2018-05-17T09:35:44.939Z,3.10
2018-05-17T09:38:23.375Z,3.30
2018-05-17T09:40:53.603Z,2.80
2018-05-17T09:43:21.869Z,2.90
2018-05-17T09:46:00.806Z,3.00
2018-05-17T09:48:29.109Z,2.97
2018-05-17T09:50:57.356Z,3.37
2018-05-17T09:53:29.160Z,3.10
2018-05-17T09:56:08.410Z,2.97
2018-05-17T09:58:43.896Z,2.93
2018-05-17T10:01:15.284Z,2.70
2018-05-17T10:03:44.360Z,2.70
2018-05-17T10:06:17.699Z,2.83
2018-05-17T10:08:46.190Z,2.83
2018-05-17T10:11:14.386Z,2.80
2018-05-17T10:14:01.268Z,2.83
2018-05-17T10:16:33.603Z,2.73
2018-05-17T10:19:13.928Z,3.00
2018-05-17T10:21:42.207Z,2.93
2018-05-17T10:27:16.038Z,3.33
2018-05-17T10:29:46.394Z,2.57
2018-05-17T10:32:17.391Z,2.67
2018-05-17T10:34:49.683Z,3.00
2018-05-17T10:37:19.691Z,2.90
2018-05-17T10:39:54.729Z,3.13
2018-05-17T10:42:24.030Z,3.13
2018-05-17T10:44:53.318Z,2.90
2018-05-17T10:47:35.470Z,2.80
2018-05-17T10:50:12.395Z,3.20
2018-05-17T10:52:46.534Z,4.13
2018-05-17T10:55:25.913Z,3.37
2018-05-17T10:57:56.215Z,3.70
2018-05-17T11:00:26.187Z,3.83
2018-05-17T11:02:55.503Z,3.87
2018-05-17T11:05:29.226Z,3.50
2018-05-17T11:07:59.585Z,3.73
2018-05-17T11:10:31.711Z,3.70
2018-05-17T11:13:13.941Z,3.83
2018-05-17T11:15:47.522Z,4.60
2018-05-17T11:18:16.791Z,4.50
2018-05-17T11:20:51.690Z,4.43
2018-05-17T11:23:20.021Z,4.00
2018-05-17T11:25:54.638Z,4.00
2018-05-17T11:28:37.073Z,4.30
2018-05-17T11:31:07.311Z,4.57
2018-05-17T11:33:37.735Z,4.37
2018-05-17T11:36:08.763Z,4.23
2018-05-17T11:38:37.832Z,4.00
2018-05-17T11:41:09.503Z,4.23
2018-05-17T11:43:41.223Z,4.83
2018-05-17T11:46:09.654Z,4.13
2018-05-17T11:48:40.711Z,3.90
2018-05-17T11:51:12.122Z,4.07
2018-05-17T11:53:54.761Z,3.30
2018-05-17T11:56:31.437Z,3.43
2018-05-17T11:59:04.195Z,4.27
2018-05-17T12:01:49.983Z,4.30
2018-05-17T12:04:22.955Z,3.60
2018-05-17T12:06:52.272Z,3.57
2018-05-17T12:09:21.363Z,4.03
2018-05-17T12:11:52.920Z,3.90
2018-05-17T12:14:21.453Z,3.80
2018-05-17T12:17:03.025Z,4.43
2018-05-17T12:19:34.133Z,3.50
2018-05-17T12:22:05.287Z,3.87
2018-05-17T12:24:44.272Z,4.17
2018-05-17T12:27:13.756Z,4.03
2018-05-17T12:29:45.153Z,4.90
2018-05-17T12:32:16.166Z,3.57
2018-05-17T12:34:44.556Z,3.63
2018-05-17T12:37:13.663Z,4.03
2018-05-17T12:39:46.368Z,3.57
2018-05-17T12:42:15.495Z,5.23
2018-05-17T12:44:50.671Z,4.23
2018-05-17T12:47:19.014Z,4.50
2018-05-17T12:49:49.328Z,4.30
2018-05-17T12:52:18.604Z,5.00
2018-05-17T12:54:48.386Z,4.60
2018-05-17T12:57:17.121Z,4.20
2018-05-17T12:59:52.222Z,4.50
2018-05-17T13:02:22.318Z,5.10
2018-05-17T13:04:52.446Z,4.53
2018-05-17T13:07:23.267Z,4.60
2018-05-17T13:09:52.400Z,4.70
2018-05-17T13:12:20.764Z,4.37
2018-05-17T13:14:53.379Z,3.50
2018-05-17T13:17:22.847Z,4.33
2018-05-17T13:19:53.838Z,4.27
2018-05-17T13:22:23.877Z,4.13
2018-05-17T13:25:00.156Z,4.97
2018-05-17T13:27:35.621Z,5.17
2018-05-17T13:30:10.570Z,4.90
2018-05-17T13:32:40.005Z,4.77
2018-05-17T13:35:16.868Z,5.37
2018-05-17T13:37:51.758Z,5.40
2018-05-17T13:40:25.868Z,5.10
2018-05-17T13:42:55.483Z,5.43
2018-05-17T13:45:28.219Z,5.10
2018-05-17T13:48:01.897Z,5.20
2018-05-17T13:50:34.733Z,5.20
2018-05-17T13:53:03.941Z,5.10
2018-05-17T13:55:37.131Z,5.40
2018-05-17T13:58:05.463Z,4.57
2018-05-17T14:00:34.711Z,4.77
2018-05-17T14:03:02.996Z,4.70
2018-05-17T14:05:44.120Z,4.37
2018-05-17T14:08:12.451Z,3.63
2018-05-17T14:10:41.056Z,4.07
2018-05-17T14:13:13.041Z,3.33
2018-05-17T14:15:41.359Z,3.60
2018-05-17T14:18:13.567Z,3.17
2018-05-17T14:20:52.850Z,3.33
2018-05-17T14:23:21.156Z,3.30
2018-05-17T14:25:56.138Z,3.77
2018-05-17T14:28:24.485Z,3.90
2018-05-17T14:30:54.501Z,4.53
2018-05-17T14:33:31.594Z,4.30
2018-05-17T14:36:05.300Z,4.07
2018-05-17T14:38:39.927Z,3.97
2018-05-17T14:41:13.795Z,4.43
2018-05-17T14:43:53.132Z,4.27
2018-05-17T14:46:21.505Z,4.77
2018-05-17T14:48:55.137Z,5.13
2018-05-17T14:51:27.895Z,5.43
2018-05-17T14:54:07.215Z,5.53
2018-05-17T14:56:35.495Z,6.37
2018-05-17T14:59:11.438Z,6.07
2018-05-17T15:01:39.771Z,6.10
2018-05-17T15:04:08.821Z,6.53
2018-05-17T15:06:39.087Z,5.90
2018-05-17T15:09:08.253Z,6.47
2018-05-17T15:11:41.271Z,6.10
2018-05-17T15:14:16.742Z,5.93
2018-05-17T15:16:55.804Z,5.67
2018-05-17T15:19:36.634Z,5.23
2018-05-17T15:22:05.122Z,5.40
2018-05-17T15:24:41.013Z,4.70
2018-05-17T15:27:15.656Z,5.47
2018-05-17T15:30:02.211Z,4.53
2018-05-17T15:32:30.571Z,5.27
2018-05-17T15:35:06.890Z,5.93
2018-05-17T15:37:54.462Z,5.50
2018-05-17T15:40:31.570Z,6.10
2018-05-17T15:43:03.700Z,5.77
2018-05-17T15:45:34.712Z,5.37
2018-05-17T15:48:08.759Z,5.23
2018-05-17T15:50:38.018Z,5.27
2018-05-17T15:53:11.531Z,5.03
2018-05-17T15:55:45.972Z,5.90
2018-05-17T15:58:19.953Z,4.93
2018-05-17T16:00:52.295Z,5.87
2018-05-17T16:03:25.727Z,6.40
2018-05-17T16:06:18.078Z,6.27
2018-05-17T16:08:58.531Z,5.93
2018-05-17T16:11:38.512Z,5.30
2018-05-17T16:14:16.925Z,4.83
2018-05-17T16:16:54.162Z,4.97
2018-05-17T16:19:26.072Z,5.27
2018-05-17T16:21:59.068Z,5.70
2018-05-17T16:24:31.725Z,6.20
2018-05-17T16:27:07.101Z,5.53
2018-05-17T16:29:39.448Z,6.07
2018-05-17T16:32:14.980Z,6.27
2018-05-17T16:34:45.381Z,5.30
2018-05-17T16:37:13.677Z,5.70
2018-05-17T16:39:49.102Z,5.47
2018-05-17T16:42:23.105Z,5.80
2018-05-17T16:44:56.666Z,6.13
2018-05-17T16:47:33.072Z,5.47
2018-05-17T16:50:15.735Z,4.97
2018-05-17T16:52:58.455Z,5.57
2018-05-17T16:55:46.857Z,5.40
2018-05-17T16:58:17.083Z,6.17
2018-05-17T17:00:50.169Z,5.47
2018-05-17T17:03:23.058Z,5.37
2018-05-17T17:05:52.375Z,5.33
2018-05-17T17:08:20.777Z,6.20
2018-05-17T17:11:08.797Z,6.20
2018-05-17T17:13:40.938Z,7.23
2018-05-17T17:16:10.386Z,6.67
2018-05-17T17:18:43.552Z,6.20
2018-05-17T17:21:13.108Z,6.70
2018-05-17T17:23:48.439Z,6.27
2018-05-17T17:26:24.695Z,5.67
2018-05-17T17:28:55.978Z,6.20
2018-05-17T17:31:31.192Z,6.37
2018-05-17T17:34:06.757Z,6.97
2018-05-17T17:36:36.004Z,6.30
2018-05-17T17:39:17.264Z,6.43
2018-05-17T17:41:50.387Z,6.67
2018-05-17T17:44:19.568Z,6.53
2018-05-17T17:47:03.058Z,6.47
2018-05-17T17:49:32.433Z,7.53
2018-05-17T17:52:10.806Z,6.33
2018-05-17T17:54:39.489Z,6.67
2018-05-17T17:57:09.590Z,7.13
2018-05-17T17:59:59.419Z,7.27
2018-05-17T18:02:33.439Z,7.60
2018-05-17T18:05:08.056Z,7.43
2018-05-17T18:07:40.703Z,6.47
2018-05-17T18:10:11.028Z,6.23
2018-05-17T18:12:54.293Z,7.20
2018-05-17T18:15:36.413Z,7.10
2018-05-17T18:18:06.716Z,6.03
2018-05-17T18:20:35.957Z,9.83
2018-05-17T18:23:14.923Z,9.17
2018-05-17T18:25:44.356Z,6.77
2018-05-17T18:28:20.932Z,6.10
2018-05-17T18:31:04.634Z,6.17
2018-05-17T18:33:38.493Z,5.83
2018-05-17T18:36:16.839Z,6.37
2018-05-17T18:38:53.673Z,6.13
2018-05-17T18:41:36.000Z,7.13
2018-05-17T18:44:31.030Z,7.30
2018-05-17T18:49:49.082Z,9.07
2018-05-17T18:52:25.979Z,6.77
2018-05-17T18:55:02.312Z,6.30
2018-05-17T18:58:02.054Z,6.40
2018-05-17T19:00:33.369Z,6.00
2018-05-17T19:03:23.699Z,9.50
2018-05-17T19:05:58.950Z,7.53
2018-05-17T19:08:45.884Z,8.37
2018-05-17T19:11:24.775Z,7.20
2018-05-17T19:14:06.311Z,6.93
2018-05-17T19:16:52.902Z,6.60
2018-05-17T19:19:23.251Z,7.03
2018-05-17T19:22:02.673Z,7.03
2018-05-17T19:24:57.895Z,7.47
2018-05-17T19:27:29.644Z,6.93
2018-05-17T19:30:02.776Z,7.43
2018-05-17T19:32:32.103Z,7.37
2018-05-17T19:35:01.338Z,6.83
2018-05-17T19:37:29.651Z,7.77
2018-05-17T19:39:59.010Z,8.03
2018-05-17T19:42:34.882Z,8.57
2018-05-17T19:45:05.851Z,8.80
2018-05-17T19:47:35.140Z,8.67
2018-05-17T19:50:10.858Z,8.07
2018-05-17T19:52:43.783Z,8.17
2018-05-17T19:55:12.088Z,8.70
2018-05-17T19:57:46.633Z,8.67
2018-05-17T20:00:14.986Z,9.23
2018-05-17T20:02:45.409Z,7.67
2018-05-17T20:05:14.510Z,8.90
2018-05-17T20:07:47.920Z,8.40
2018-05-17T20:10:16.779Z,8.97
2018-05-17T20:12:45.932Z,9.07
2018-05-17T20:15:18.834Z,9.40
2018-05-17T20:17:52.165Z,8.77
2018-05-17T20:20:25.123Z,8.90
2018-05-17T20:22:56.349Z,10.00
2018-05-17T20:25:25.337Z,8.33
2018-05-17T20:27:55.527Z,8.13
2018-05-17T20:30:32.373Z,9.17
2018-05-17T20:33:18.952Z,9.17
2018-05-17T20:35:51.435Z,8.70
2018-05-17T20:38:21.758Z,8.37
2018-05-17T20:40:51.396Z,9.23
2018-05-17T20:43:19.680Z,9.30
2018-05-17T20:45:50.298Z,9.63
2018-05-17T20:48:18.565Z,9.80
2018-05-17T20:50:48.872Z,9.07
2018-05-17T20:53:17.156Z,7.80
2018-05-17T20:55:46.576Z,8.47
2018-05-17T20:58:17.058Z,8.70
2018-05-17T21:00:46.453Z,9.10
2018-05-17T21:03:28.955Z,8.93
2018-05-17T21:05:59.078Z,9.97
2018-05-17T21:08:28.356Z,11.47
2018-05-17T21:10:58.321Z,11.80
2018-05-17T21:13:26.615Z,13.30
2018-05-17T21:15:59.138Z,13.70
2018-05-17T21:18:29.399Z,10.97
2018-05-17T21:20:58.759Z,10.70
2018-05-17T21:23:34.155Z,11.17
2018-05-17T21:26:07.271Z,9.73
2018-05-17T21:28:35.556Z,10.37
2018-05-17T21:31:06.075Z,10.57
2018-05-17T21:33:37.876Z,10.97
2018-05-17T21:36:10.763Z,10.73
2018-05-17T21:38:44.019Z,9.80
2018-05-17T21:41:13.719Z,9.27
2018-05-17T21:43:48.786Z,10.20
2018-05-17T21:46:18.334Z,9.83
2018-05-17T21:49:05.904Z,10.77
2018-05-17T21:51:37.651Z,11.60
2018-05-17T21:54:06.004Z,12.00
2018-05-17T21:56:48.306Z,11.10
2018-05-17T21:59:20.706Z,12.03
2018-05-17T22:01:54.860Z,12.23
2018-05-17T22:04:26.245Z,11.87
2018-05-17T22:06:59.492Z,11.17
2018-05-17T22:09:48.039Z,10.73
2018-05-17T22:12:21.118Z,10.53
2018-05-17T22:14:50.267Z,12.27
2018-05-17T22:17:20.345Z,11.37
2018-05-17T22:20:00.655Z,12.27
2018-05-17T22:22:40.891Z,12.27
2018-05-17T22:25:15.883Z,12.30
2018-05-17T22:27:49.380Z,12.47
2018-05-17T22:30:23.520Z,13.17
2018-05-17T22:32:52.040Z,13.93
2018-05-17T22:35:20.345Z,12.57
2018-05-17T22:38:03.134Z,13.00
2018-05-17T22:40:38.870Z,12.13
2018-05-17T22:43:08.235Z,13.20
2018-05-17T22:45:45.642Z,12.67
2018-05-17T22:48:21.502Z,12.70
2018-05-17T22:50:51.354Z,13.20
2018-05-17T22:53:19.680Z,13.13
2018-05-17T22:55:49.487Z,12.87
2018-05-17T22:58:34.654Z,12.73
2018-05-17T23:01:04.751Z,13.90
2018-05-17T23:03:33.007Z,13.73
2018-05-17T23:06:11.453Z,13.03
2018-05-17T23:08:46.299Z,12.63
2018-05-17T23:11:16.619Z,13.03
2018-05-17T23:13:47.658Z,13.30
2018-05-17T23:16:20.011Z,12.80
2018-05-17T23:18:49.787Z,13.83
2018-05-17T23:21:22.623Z,13.80
2018-05-17T23:23:55.284Z,14.23
2018-05-17T23:26:24.628Z,13.67
2018-05-17T23:28:56.044Z,15.13
2018-05-17T23:31:27.107Z,14.60
2018-05-17T23:33:55.347Z,14.47
2018-05-17T23:36:23.625Z,15.90
2018-05-17T23:38:53.047Z,15.13
2018-05-17T23:41:43.704Z,16.97
2018-05-17T23:44:16.720Z,15.77
2018-05-17T23:46:45.219Z,16.40
2018-05-17T23:49:20.845Z,15.43
2018-05-17T23:51:49.124Z,14.97
2018-05-17T23:54:17.379Z,15.17
2018-05-17T23:56:56.303Z,14.30
2018-05-17T23:59:25.629Z,15.13
